CWL81 EGVN-EGYD

Flight info

Callsign CWL81
Flight time 0h 47m
Altitude 15000
Route NAXAT BIFIN LICH RC
Aircraft E50P/L-V/N

Departure

Time 2026-05-09 08:34
Airport RAF Brize Norton (EGVN)

Arrival

Time 2026-05-09 09:21
Airport RAF Cranwell (EGYD)
Time Latitude Longitude Altitude Speed Heading
2026-05-09 08:27 51.74441 -1.59313 259 ft 0 kts 123°
2026-05-09 08:31 51.74441 -1.59312 259 ft 1 kts 122°
2026-05-09 08:31 51.74442 -1.59302 259 ft 1 kts 54°
2026-05-09 08:31 51.74450 -1.59303 259 ft 2 kts 335°
2026-05-09 08:32 51.74492 -1.59339 259 ft 6 kts 299°
2026-05-09 08:32 51.74478 -1.59448 259 ft 15 kts 253°
2026-05-09 08:32 51.74445 -1.59879 259 ft 22 kts 297°
2026-05-09 08:33 51.74546 -1.60066 259 ft 23 kts 342°
2026-05-09 08:33 51.74671 -1.60067 259 ft 17 kts 59°
2026-05-09 08:33 51.74692 -1.59962 258 ft 33 kts 74°
2026-05-09 08:33 51.74825 -1.59241 260 ft 98 kts 73°
2026-05-09 08:34 51.75047 -1.58087 505 ft 124 kts 73°
2026-05-09 08:34 51.75325 -1.56620 854 ft 150 kts 73°
2026-05-09 08:34 51.75666 -1.54844 1200 ft 179 kts 73°
2026-05-09 08:34 51.76366 -1.53060 1698 ft 199 kts 40°
2026-05-09 08:35 51.77431 -1.52443 2364 ft 204 kts
2026-05-09 08:35 51.78318 -1.52650 2842 ft 209 kts 343°
2026-05-09 08:35 51.79473 -1.54094 3591 ft 216 kts 306°
2026-05-09 08:35 51.79925 -1.56385 4278 ft 218 kts 269°
2026-05-09 08:36 51.79467 -1.58683 5003 ft 218 kts 235°
2026-05-09 08:36 51.78574 -1.60567 5630 ft 219 kts 232°
2026-05-09 08:36 51.77911 -1.62553 6268 ft 219 kts 247°
2026-05-09 08:36 51.77381 -1.64869 6889 ft 221 kts 249°
2026-05-09 08:37 51.76825 -1.67186 7500 ft 222 kts 248°
2026-05-09 08:37 51.76283 -1.69352 8064 ft 222 kts 248°
2026-05-09 08:37 51.75992 -1.71722 8604 ft 224 kts 270°
2026-05-09 08:37 51.76200 -1.74145 9185 ft 224 kts 281°
2026-05-09 08:38 51.76502 -1.76615 9778 ft 225 kts 280°
2026-05-09 08:38 51.76764 -1.78847 10289 ft 225 kts 281°
2026-05-09 08:38 51.77062 -1.81228 10750 ft 228 kts 281°
2026-05-09 08:38 51.77369 -1.83742 11277 ft 228 kts 281°
2026-05-09 08:39 51.77473 -1.84611 11455 ft 229 kts 281°
2026-05-09 08:39 51.77743 -1.86843 11954 ft 228 kts 280°
2026-05-09 08:39 51.78048 -1.89357 12457 ft 229 kts 280°
2026-05-09 08:39 51.78355 -1.91889 12955 ft 232 kts 281°
2026-05-09 08:40 51.78636 -1.94218 13367 ft 235 kts 281°
2026-05-09 08:40 51.79184 -1.96685 13895 ft 235 kts 298°
2026-05-09 08:40 51.80155 -1.98818 14350 ft 238 kts 310°
2026-05-09 08:40 51.81258 -2.00785 14758 ft 240 kts 310°
2026-05-09 08:41 51.82360 -2.02834 15117 ft 245 kts 310°
2026-05-09 08:41 51.83279 -2.04503 15131 ft 258 kts 310°
2026-05-09 08:41 51.84493 -2.06698 15135 ft 270 kts 310°
2026-05-09 08:41 51.85462 -2.08466 15129 ft 279 kts 310°
2026-05-09 08:42 51.86767 -2.10847 15142 ft 287 kts 310°
2026-05-09 08:42 51.88098 -2.13281 15144 ft 290 kts 310°
2026-05-09 08:42 51.89420 -2.15696 15143 ft 296 kts 310°
2026-05-09 08:42 51.90044 -2.16838 15134 ft 298 kts 310°
2026-05-09 08:43 51.91342 -2.19216 15142 ft 302 kts 310°
2026-05-09 08:43 51.92741 -2.21780 15142 ft 305 kts 310°
2026-05-09 08:43 51.94149 -2.24365 15143 ft 307 kts 310°
2026-05-09 08:43 51.94990 -2.25906 15143 ft 308 kts 310°
2026-05-09 08:44 51.95572 -2.26977 15146 ft 308 kts 310°
2026-05-09 08:44 51.96994 -2.29594 15136 ft 310 kts 310°
2026-05-09 08:44 51.98083 -2.31595 15137 ft 311 kts 310°
2026-05-09 08:44 51.98982 -2.33253 15144 ft 312 kts 310°
2026-05-09 08:45 52.00420 -2.35902 15138 ft 313 kts 310°
2026-05-09 08:45 52.01859 -2.38560 15143 ft 314 kts 310°
2026-05-09 08:45 52.03280 -2.41170 15154 ft 315 kts 311°
2026-05-09 08:45 52.04953 -2.43458 15151 ft 317 kts 325°
2026-05-09 08:46 52.06005 -2.44450 15152 ft 318 kts 331°
2026-05-09 08:46 52.08089 -2.45696 15155 ft 321 kts 344°
2026-05-09 08:46 52.10309 -2.46197 15152 ft 322 kts 354°
2026-05-09 08:46 52.12427 -2.46477 15155 ft 322 kts 353°
2026-05-09 08:47 52.13193 -2.46594 15148 ft 322 kts 353°
2026-05-09 08:47 52.14838 -2.46848 15148 ft 323 kts 353°
2026-05-09 08:47 52.17074 -2.47165 15162 ft 323 kts 353°
2026-05-09 08:47 52.19313 -2.47477 15164 ft 323 kts 353°
2026-05-09 08:48 52.20793 -2.47686 15164 ft 322 kts 353°
2026-05-09 08:48 52.22869 -2.47984 15163 ft 314 kts 353°
2026-05-09 08:48 52.25034 -2.48298 15162 ft 313 kts 353°
2026-05-09 08:48 52.27204 -2.48608 15164 ft 313 kts 353°
2026-05-09 08:49 52.29370 -2.48921 15166 ft 313 kts 353°
2026-05-09 08:49 52.29848 -2.48990 15166 ft 313 kts 353°
2026-05-09 08:49 52.30805 -2.49126 15157 ft 313 kts 353°
2026-05-09 08:49 52.33151 -2.49462 15164 ft 313 kts 353°
2026-05-09 08:50 52.35318 -2.49778 15163 ft 313 kts 353°
2026-05-09 08:50 52.36370 -2.49928 15164 ft 313 kts 353°
2026-05-09 08:50 52.38616 -2.50252 15167 ft 313 kts 353°
2026-05-09 08:50 52.40784 -2.50563 15167 ft 313 kts 353°
2026-05-09 08:51 52.42445 -2.50805 15168 ft 313 kts 353°
2026-05-09 08:51 52.44617 -2.51119 15168 ft 313 kts 353°
2026-05-09 08:51 52.46784 -2.51433 15173 ft 313 kts 353°
2026-05-09 08:51 52.48197 -2.51639 15173 ft 313 kts 353°
2026-05-09 08:52 52.48870 -2.51737 15169 ft 313 kts 353°
2026-05-09 08:52 52.51041 -2.51891 15162 ft 314 kts
2026-05-09 08:52 52.52610 -2.51219 15150 ft 318 kts 21°
2026-05-09 08:52 52.54379 -2.49140 15145 ft 322 kts 46°
2026-05-09 08:53 52.55540 -2.46022 15158 ft 322 kts 67°
2026-05-09 08:53 52.55914 -2.44289 15159 ft 322 kts 72°
2026-05-09 08:53 52.56634 -2.40529 15159 ft 322 kts 71°
2026-05-09 08:53 52.57428 -2.37104 15153 ft 322 kts 66°
2026-05-09 08:54 52.58103 -2.34632 15155 ft 321 kts 65°
2026-05-09 08:54 52.58997 -2.31287 15156 ft 322 kts 67°
2026-05-09 08:54 52.59767 -2.28150 15156 ft 322 kts 68°
2026-05-09 08:54 52.60354 -2.25755 15156 ft 322 kts 67°
2026-05-09 08:55 52.61211 -2.22355 15157 ft 322 kts 67°
2026-05-09 08:55 52.62074 -2.18950 15158 ft 322 kts 67°
2026-05-09 08:55 52.62927 -2.15540 15160 ft 323 kts 67°
2026-05-09 08:55 52.63492 -2.13278 15158 ft 323 kts 67°
2026-05-09 08:56 52.63708 -2.12416 15158 ft 323 kts 67°
2026-05-09 08:56 52.64579 -2.08932 15158 ft 323 kts 67°
2026-05-09 08:56 52.65018 -2.07169 15158 ft 323 kts 67°
2026-05-09 08:56 52.65720 -2.04359 15162 ft 323 kts 67°
2026-05-09 08:57 52.66284 -2.02092 15162 ft 323 kts 67°
2026-05-09 08:57 52.67135 -1.98668 15157 ft 323 kts 67°
2026-05-09 08:57 52.67985 -1.95251 15159 ft 322 kts 68°
2026-05-09 08:57 52.68832 -1.91833 15156 ft 322 kts 68°
2026-05-09 08:58 52.69302 -1.89936 15155 ft 322 kts 68°
2026-05-09 08:58 52.69581 -1.88810 15156 ft 322 kts 68°
2026-05-09 08:58 52.70457 -1.85262 15156 ft 322 kts 68°
2026-05-09 08:58 52.71265 -1.81995 15156 ft 322 kts 68°
2026-05-09 08:59 52.72034 -1.78874 15131 ft 322 kts 68°
2026-05-09 08:59 52.72833 -1.75627 15130 ft 322 kts 68°
2026-05-09 08:59 52.73103 -1.74529 15127 ft 322 kts 68°
2026-05-09 08:59 52.73637 -1.72356 15154 ft 322 kts 68°
2026-05-09 09:00 52.74477 -1.68930 15153 ft 322 kts 68°
2026-05-09 09:00 52.75278 -1.65663 15150 ft 322 kts 68°
2026-05-09 09:00 52.75566 -1.64487 15164 ft 322 kts 68°
2026-05-09 09:00 52.76398 -1.61101 15162 ft 322 kts 68°
2026-05-09 09:01 52.77188 -1.57849 15164 ft 322 kts 68°
2026-05-09 09:01 52.77564 -1.56311 15165 ft 322 kts 68°
2026-05-09 09:01 52.78398 -1.52886 15162 ft 322 kts 68°
2026-05-09 09:01 52.79232 -1.49457 15158 ft 322 kts 68°
2026-05-09 09:02 52.80069 -1.46020 15157 ft 322 kts 68°
2026-05-09 09:02 52.80901 -1.42591 15162 ft 322 kts 68°
2026-05-09 09:02 52.81048 -1.41985 15158 ft 322 kts 68°
2026-05-09 09:02 52.81200 -1.41356 15154 ft 322 kts 68°
2026-05-09 09:03 52.82021 -1.37953 15164 ft 322 kts 69°
2026-05-09 09:03 52.82508 -1.35931 15161 ft 322 kts 68°
2026-05-09 09:03 52.83031 -1.33751 15155 ft 322 kts 69°
2026-05-09 09:03 52.83846 -1.30262 15161 ft 322 kts 69°
2026-05-09 09:04 52.84653 -1.26805 15159 ft 322 kts 69°
2026-05-09 09:04 52.85466 -1.23349 15158 ft 322 kts 69°
2026-05-09 09:04 52.86005 -1.21062 15158 ft 322 kts 69°
2026-05-09 09:04 52.86462 -1.19113 15158 ft 322 kts 69°
2026-05-09 09:05 52.86766 -1.17806 15160 ft 321 kts 69°
2026-05-09 09:05 52.87557 -1.14419 15161 ft 308 kts 69°
2026-05-09 09:05 52.88277 -1.11342 15052 ft 303 kts 69°
2026-05-09 09:05 52.89039 -1.08070 14688 ft 306 kts 69°
2026-05-09 09:06 52.89758 -1.04984 14289 ft 308 kts 69°
2026-05-09 09:06 52.90204 -1.03064 13940 ft 309 kts 69°
2026-05-09 09:06 52.90944 -0.99877 13286 ft 309 kts 69°
2026-05-09 09:06 52.91714 -0.96559 12625 ft 309 kts 69°
2026-05-09 09:07 52.92047 -0.95119 12342 ft 307 kts 69°
2026-05-09 09:07 52.92642 -0.92551 11837 ft 303 kts 69°
2026-05-09 09:07 52.93349 -0.89500 11242 ft 298 kts 69°
2026-05-09 09:07 52.94085 -0.86323 10622 ft 293 kts 70°
2026-05-09 09:08 52.94339 -0.85211 10423 ft 291 kts 70°
2026-05-09 09:08 52.95006 -0.82298 9960 ft 285 kts 70°
2026-05-09 09:08 52.95705 -0.79261 9420 ft 279 kts 70°
2026-05-09 09:08 52.96392 -0.76280 8894 ft 275 kts 70°
2026-05-09 09:09 52.97066 -0.73338 8376 ft 271 kts 70°
2026-05-09 09:09 52.97274 -0.72427 8215 ft 270 kts 70°
2026-05-09 09:09 52.97444 -0.71681 8085 ft 269 kts 70°
2026-05-09 09:09 52.97823 -0.70030 7795 ft 268 kts 70°
2026-05-09 09:10 52.98421 -0.67418 7338 ft 266 kts 70°
2026-05-09 09:10 52.99018 -0.64798 6882 ft 263 kts 70°
2026-05-09 09:10 52.99662 -0.61981 6380 ft 258 kts 70°
2026-05-09 09:10 52.99999 -0.60508 6104 ft 257 kts 70°
2026-05-09 09:11 53.00606 -0.57844 5606 ft 254 kts 70°
2026-05-09 09:11 53.01225 -0.55111 5099 ft 252 kts 70°
2026-05-09 09:11 53.01841 -0.52394 4585 ft 250 kts 70°
2026-05-09 09:11 53.02213 -0.49685 4254 ft 241 kts 87°
2026-05-09 09:12 53.02217 -0.48622 4134 ft 239 kts 92°
2026-05-09 09:12 53.02195 -0.48087 4104 ft 237 kts 95°
2026-05-09 09:12 53.01845 -0.45487 3949 ft 230 kts 110°
2026-05-09 09:12 53.01261 -0.43081 3801 ft 223 kts 111°
2026-05-09 09:13 53.01197 -0.42801 3788 ft 222 kts 111°
2026-05-09 09:13 53.00740 -0.40729 3647 ft 218 kts 110°
2026-05-09 09:13 53.00202 -0.38406 3506 ft 214 kts 111°
2026-05-09 09:13 52.99695 -0.36256 3361 ft 211 kts 111°
2026-05-09 09:14 52.99208 -0.34171 3227 ft 208 kts 111°
2026-05-09 09:14 52.98689 -0.31946 3083 ft 205 kts 111°
2026-05-09 09:14 52.98182 -0.29753 2942 ft 202 kts 110°
2026-05-09 09:14 52.97679 -0.27590 2807 ft 200 kts 111°
2026-05-09 09:15 52.97344 -0.26161 2717 ft 201 kts 111°
2026-05-09 09:15 52.97191 -0.25512 2704 ft 200 kts 110°
2026-05-09 09:15 52.96936 -0.23755 2694 ft 197 kts 94°
2026-05-09 09:15 52.97078 -0.21620 2690 ft 194 kts 77°
2026-05-09 09:16 52.97554 -0.19764 2696 ft 194 kts 60°
2026-05-09 09:16 52.99487 -0.17094 2692 ft 200 kts 24°
2026-05-09 09:16 53.00527 -0.16676 2690 ft 203 kts
2026-05-09 09:17 53.01978 -0.16858 2624 ft 211 kts 346°
2026-05-09 09:17 53.03300 -0.17912 2516 ft 212 kts 324°
2026-05-09 09:17 53.04291 -0.19635 2394 ft 212 kts 303°
2026-05-09 09:17 53.04837 -0.21856 2266 ft 208 kts 282°
2026-05-09 09:18 53.04901 -0.24225 2136 ft 204 kts 263°
2026-05-09 09:18 53.04721 -0.26526 2095 ft 196 kts 262°
2026-05-09 09:18 53.04579 -0.28603 2096 ft 192 kts 262°
2026-05-09 09:18 53.04408 -0.30623 2093 ft 188 kts 261°
2026-05-09 09:19 53.04248 -0.32740 1996 ft 189 kts 263°
2026-05-09 09:19 53.04082 -0.34946 1738 ft 189 kts 261°
2026-05-09 09:19 53.03900 -0.37071 1481 ft 188 kts 262°
2026-05-09 09:19 53.03753 -0.39211 1246 ft 185 kts 263°
2026-05-09 09:20 53.03606 -0.41276 995 ft 171 kts 262°
2026-05-09 09:20 53.03499 -0.42613 762 ft 155 kts 262°
2026-05-09 09:20 53.03363 -0.44240 572 ft 130 kts 262°
2026-05-09 09:20 53.03289 -0.45127 479 ft 124 kts 263°
2026-05-09 09:21 53.03192 -0.46444 346 ft 111 kts 263°
2026-05-09 09:21 53.03100 -0.47648 216 ft 98 kts 262°
2026-05-09 09:21 53.03029 -0.48551 190 ft 82 kts 262°
2026-05-09 09:21 53.02965 -0.49370 181 ft 42 kts 262°
2026-05-09 09:22 53.02928 -0.49842 194 ft 40 kts 262°
2026-05-09 09:22 53.02896 -0.50257 189 ft 24 kts 263°
2026-05-09 09:22 53.02877 -0.50482 188 ft 20 kts 262°
2026-05-09 09:22 53.02939 -0.50577 189 ft 14 kts 355°
2026-05-09 09:23 53.03022 -0.50519 201 ft 14 kts 47°
2026-05-09 09:23 53.03084 -0.50494 199 ft 10 kts 320°
2026-05-09 09:23 53.03119 -0.50594 204 ft 10 kts 264°
2026-05-09 09:23 53.03108 -0.50716 201 ft 11 kts 267°
2026-05-09 09:24 53.03086 -0.50760 201 ft 5 kts 165°
2026-05-09 09:24 53.03083 -0.50759 200 ft 2 kts 169°
2026-05-09 09:24 53.03056 -0.50737 201 ft 5 kts 101°
2026-05-09 09:24 53.03060 -0.50640 202 ft 12 kts 97°
2026-05-09 09:25 53.03023 -0.50525 201 ft 14 kts 75°
2026-05-09 09:25 53.03092 -0.50507 207 ft 12 kts 316°
2026-05-09 09:25 53.03118 -0.50623 200 ft 11 kts 261°
2026-05-09 09:25 53.03106 -0.50698 201 ft 3 kts 206°
2026-05-09 09:26 53.03087 -0.50696 199 ft 2 kts 174°
2026-05-09 09:26 53.03084 -0.50696 199 ft 0 kts 174°